KBBW/BBW METAR and TAF weather

Enter ICAO airport designator
Station Type Date Time Source
KBBW METAR 2019/09/21 21:53 UTC NOAA

KBBW 212153Z AUTO 34007KT 10SM CLR 28/06 A2988 RMK AO2 SLP093 T02780061


Station Type Date Time Source
KBBW Decoded METAR 2019/09/21 21:53 UTC NOAA

BROKEN BOW MUNICIPAL AIRPORT, NE, United States (KBBW) 41-26N 099-38W
Sep 21, 2019 - 05:53 PM EDT / 2019.09.21 2153 UTC
Wind: from the NNW (340 degrees) at 8 MPH (7 KT):0
Visibility: 10 mile(s):0
Sky conditions: clear
Temperature: 82.0 F (27.8 C)
Dew Point: 43.0 F (6.1 C)
Relative Humidity: 25%
Pressure (altimeter): 29.88 in. Hg (1011 hPa)
ob: KBBW 212153Z AUTO 34007KT 10SM CLR 28/06 A2988 RMK AO2 SLP093 T02780061
cycle: 22

Station Type Date Time Source
KBBW TAF UTC NOAA

Error!

Example: see airport list